createdAt,value
2022-12-03T00:03:33.555Z,64.26
2022-12-03T00:08:37.143Z,64.27
2022-12-03T00:13:40.613Z,63.63
2022-12-03T00:18:44.325Z,63.60
2022-12-03T00:23:48.145Z,63.56
2022-12-03T00:28:52.175Z,63.13
2022-12-03T00:33:55.747Z,62.79
2022-12-03T00:38:59.263Z,62.80
2022-12-03T00:44:02.605Z,62.26
2022-12-03T00:49:05.931Z,61.53
2022-12-03T00:54:11.497Z,61.23
2022-12-03T00:59:14.878Z,60.96
2022-12-03T01:04:18.428Z,60.98
2022-12-03T01:09:23.208Z,60.49
2022-12-03T01:14:27.005Z,60.19
2022-12-03T01:19:30.434Z,59.99
2022-12-03T01:24:34.554Z,59.67
2022-12-03T01:29:38.070Z,59.55
2022-12-03T01:34:41.361Z,59.59
2022-12-03T01:39:44.456Z,60.39
2022-12-03T01:44:48.547Z,60.20
2022-12-03T01:49:56.904Z,59.72
2022-12-03T01:55:03.090Z,59.30
2022-12-03T02:00:13.205Z,59.39
2022-12-03T02:05:23.090Z,59.05
2022-12-03T02:10:31.627Z,58.79
2022-12-03T02:15:38.398Z,59.16
2022-12-03T02:21:41.253Z,59.10
2022-12-03T02:26:44.632Z,58.73
2022-12-03T02:31:48.104Z,58.66
2022-12-03T02:36:51.574Z,58.83
2022-12-03T02:41:55.274Z,58.30
2022-12-03T02:46:58.782Z,58.54
2022-12-03T02:52:02.624Z,58.49
2022-12-03T02:57:06.529Z,57.69
2022-12-03T03:02:10.599Z,58.35
2022-12-03T03:07:15.077Z,58.17
2022-12-03T03:12:20.516Z,58.03
2022-12-03T03:17:25.404Z,58.24
2022-12-03T03:22:36.811Z,58.43
2022-12-03T03:27:41.312Z,58.03
2022-12-03T03:32:46.108Z,58.49
2022-12-03T03:37:51.244Z,58.29
2022-12-03T03:42:55.967Z,57.71
2022-12-03T03:48:00.871Z,58.04
2022-12-03T03:53:05.396Z,57.96
2022-12-03T03:58:09.352Z,58.25
2022-12-03T04:03:13.120Z,57.86
2022-12-03T04:08:17.890Z,57.94
2022-12-03T04:13:21.250Z,57.88
2022-12-03T04:18:24.497Z,57.53
2022-12-03T04:23:30.840Z,58.30
2022-12-03T04:28:34.400Z,57.99
2022-12-03T04:33:39.013Z,57.42
2022-12-03T04:38:42.499Z,57.37
2022-12-03T04:43:45.865Z,57.74
2022-12-03T04:48:49.637Z,57.23
2022-12-03T04:53:54.693Z,57.57
2022-12-03T04:58:58.113Z,57.36
2022-12-03T05:04:01.477Z,57.29
2022-12-03T05:09:05.998Z,57.16
2022-12-03T05:14:10.048Z,57.37
2022-12-03T05:19:13.726Z,56.93
2022-12-03T05:24:17.179Z,56.93
2022-12-03T05:29:20.629Z,57.15
2022-12-03T05:34:26.384Z,56.73
2022-12-03T05:39:29.970Z,56.92
2022-12-03T05:44:35.058Z,56.57
2022-12-03T05:49:38.720Z,56.23
2022-12-03T05:54:42.500Z,55.68
2022-12-03T05:59:45.874Z,54.77
2022-12-03T06:04:49.861Z,54.75
2022-12-03T06:09:54.423Z,55.24
2022-12-03T06:14:58.713Z,55.15
2022-12-03T06:20:02.433Z,55.09
2022-12-03T06:25:07.564Z,54.92
2022-12-03T06:30:13.423Z,54.78
2022-12-03T06:35:16.984Z,54.72
2022-12-03T06:40:20.355Z,54.63
2022-12-03T06:45:23.665Z,54.26
2022-12-03T06:50:27.561Z,53.54
2022-12-03T06:55:32.349Z,53.61
2022-12-03T07:00:35.729Z,52.96
2022-12-03T07:05:39.084Z,52.93
2022-12-03T07:10:42.323Z,52.80
2022-12-03T07:15:45.673Z,52.60
2022-12-03T07:20:49.288Z,52.57
2022-12-03T07:25:52.971Z,52.41
2022-12-03T07:30:56.346Z,52.18
2022-12-03T07:35:59.717Z,52.33
2022-12-03T07:41:03.144Z,52.64
2022-12-03T07:46:06.658Z,52.93
2022-12-03T07:51:14.217Z,53.07
2022-12-03T07:56:18.967Z,53.20
2022-12-03T08:01:23.796Z,53.00
2022-12-03T08:06:27.209Z,52.93
2022-12-03T08:11:30.730Z,52.91
2022-12-03T08:16:37.464Z,53.14
2022-12-03T08:21:43.381Z,52.99
2022-12-03T08:26:49.343Z,53.11
2022-12-03T08:31:54.587Z,53.11
2022-12-03T08:37:06.367Z,52.55
2022-12-03T08:42:25.672Z,52.14
2022-12-03T08:47:30.008Z,51.83
2022-12-03T08:52:34.731Z,52.17
2022-12-03T08:57:38.346Z,52.10
2022-12-03T09:02:48.090Z,52.33
2022-12-03T09:07:51.775Z,52.44
2022-12-03T09:12:55.401Z,52.56
2022-12-03T09:18:01.244Z,52.29
2022-12-03T09:23:06.173Z,52.48
2022-12-03T09:28:09.724Z,52.09
2022-12-03T09:33:13.242Z,51.75
2022-12-03T09:38:17.073Z,51.28
2022-12-03T09:43:21.081Z,50.87
2022-12-03T09:48:24.533Z,51.24
2022-12-03T09:53:28.647Z,50.99
2022-12-03T09:58:34.935Z,50.96
2022-12-03T10:03:43.501Z,50.66
2022-12-03T10:08:53.810Z,50.71
2022-12-03T10:13:58.834Z,50.12
2022-12-03T10:19:02.499Z,49.82
2022-12-03T10:24:29.038Z,49.88
2022-12-03T10:29:35.727Z,49.74
2022-12-03T10:34:42.212Z,49.92
2022-12-03T10:39:57.584Z,50.19
2022-12-03T10:45:20.214Z,50.31
2022-12-03T10:50:27.494Z,50.01
2022-12-03T10:55:44.574Z,50.33
2022-12-03T11:00:48.760Z,50.39
2022-12-03T11:05:53.711Z,50.59
2022-12-03T11:11:21.841Z,50.61
2022-12-03T11:16:45.785Z,50.90
2022-12-03T11:22:04.136Z,50.93
2022-12-03T11:27:17.335Z,50.79
2022-12-03T11:32:39.374Z,51.29
2022-12-03T11:37:43.147Z,51.37
2022-12-03T11:42:48.605Z,51.17
2022-12-03T11:47:58.550Z,51.06
2022-12-03T11:53:13.206Z,50.94
2022-12-03T11:58:18.549Z,50.58
2022-12-03T12:03:32.889Z,50.47
2022-12-03T12:08:52.296Z,50.57
2022-12-03T12:14:15.040Z,50.44
2022-12-03T12:19:35.813Z,50.59
2022-12-03T12:24:39.460Z,50.69
2022-12-03T12:29:45.205Z,50.59
2022-12-03T12:34:54.629Z,50.84
2022-12-03T12:39:58.825Z,51.29
2022-12-03T12:45:16.682Z,51.92
2022-12-03T12:50:20.258Z,52.62
2022-12-03T12:55:24.641Z,52.93
2022-12-03T13:00:28.283Z,53.11
2022-12-03T13:05:51.532Z,53.45
2022-12-03T13:10:57.727Z,53.98
2022-12-03T13:16:23.419Z,54.27
2022-12-03T13:21:43.329Z,54.79
2022-12-03T13:26:46.745Z,54.97
2022-12-03T13:32:02.562Z,55.22
2022-12-03T13:37:27.359Z,55.40
2022-12-03T13:42:34.048Z,55.68
2022-12-03T13:47:39.067Z,55.89
2022-12-03T13:52:42.530Z,56.19
2022-12-03T13:57:45.865Z,56.45
2022-12-03T14:02:49.424Z,56.59
2022-12-03T14:07:52.889Z,56.88
2022-12-03T14:12:57.465Z,57.26
2022-12-03T14:18:00.924Z,57.55
2022-12-03T14:23:04.296Z,57.82
2022-12-03T14:28:07.614Z,58.23
2022-12-03T14:33:11.195Z,58.61
2022-12-03T14:38:15.976Z,58.79
2022-12-03T14:43:19.323Z,59.09
2022-12-03T14:48:23.400Z,59.45
2022-12-03T14:53:27.647Z,59.42
2022-12-03T14:58:32.240Z,59.69
2022-12-03T15:03:35.690Z,59.85
2022-12-03T15:08:39.245Z,60.08
2022-12-03T15:13:42.825Z,60.25
2022-12-03T15:18:46.232Z,60.85
2022-12-03T15:23:49.655Z,61.01
2022-12-03T15:28:53.440Z,61.25
2022-12-03T15:33:57.224Z,61.51
2022-12-03T15:39:00.894Z,61.60
2022-12-03T15:44:06.036Z,61.96
2022-12-03T15:49:10.060Z,62.00
2022-12-03T15:54:13.671Z,62.00
2022-12-03T15:59:17.826Z,61.92
2022-12-03T16:04:21.186Z,61.91
2022-12-03T16:09:27.482Z,62.37
2022-12-03T16:14:31.427Z,62.15
2022-12-03T16:19:34.989Z,62.14
2022-12-03T16:24:39.991Z,62.12
2022-12-03T16:29:43.487Z,61.71
2022-12-03T16:34:46.964Z,61.76
2022-12-03T16:39:50.676Z,61.77
2022-12-03T16:44:55.011Z,61.41
2022-12-03T16:49:58.341Z,61.50
2022-12-03T16:55:02.352Z,61.79
2022-12-03T17:00:07.104Z,61.36
2022-12-03T17:05:10.826Z,61.57
2022-12-03T17:10:14.498Z,61.56
2022-12-03T17:15:17.947Z,61.48
2022-12-03T17:20:21.421Z,61.38
2022-12-03T17:25:24.794Z,60.95
2022-12-03T17:30:29.681Z,60.53
2022-12-03T17:35:34.396Z,60.39
2022-12-03T17:40:37.844Z,60.21
2022-12-03T17:45:41.419Z,59.81
2022-12-03T17:50:45.025Z,58.99
2022-12-03T17:55:48.440Z,59.02
2022-12-03T18:00:53.256Z,58.54
2022-12-03T18:05:59.770Z,58.46
2022-12-03T18:11:04.110Z,57.61
2022-12-03T18:16:07.859Z,57.24
2022-12-03T18:21:12.836Z,56.47
2022-12-03T18:26:17.436Z,56.16
2022-12-03T18:31:22.869Z,55.65
2022-12-03T18:36:33.065Z,55.43
2022-12-03T18:41:36.556Z,55.40
2022-12-03T18:46:55.612Z,54.92
2022-12-03T18:51:59.865Z,54.28
2022-12-03T18:57:03.614Z,54.27
2022-12-03T19:02:08.153Z,53.89
2022-12-03T19:07:12.518Z,53.74
2022-12-03T19:12:15.915Z,53.61
2022-12-03T19:17:21.521Z,53.30
2022-12-03T19:22:25.637Z,53.08
2022-12-03T19:27:33.128Z,52.83
2022-12-03T19:32:36.782Z,52.68
2022-12-03T19:37:40.351Z,52.49
2022-12-03T19:42:44.361Z,52.71
2022-12-03T19:47:48.510Z,52.15
2022-12-03T19:52:52.349Z,52.17
2022-12-03T19:57:56.802Z,52.08
2022-12-03T20:03:01.423Z,52.18
2022-12-03T20:08:06.966Z,51.76
2022-12-03T20:13:10.341Z,51.56
2022-12-03T20:18:13.736Z,51.68
2022-12-03T20:23:18.307Z,51.55
2022-12-03T20:28:22.975Z,51.31
2022-12-03T20:33:27.135Z,51.35
2022-12-03T20:38:31.411Z,51.08
2022-12-03T20:43:35.811Z,51.12
2022-12-03T20:48:40.140Z,50.93
2022-12-03T20:53:45.292Z,50.93
2022-12-03T20:58:49.694Z,50.90
2022-12-03T21:03:57.322Z,51.03
2022-12-03T21:09:01.237Z,50.96
2022-12-03T21:14:05.458Z,50.81
2022-12-03T21:19:10.077Z,50.84
2022-12-03T21:24:13.547Z,50.61
2022-12-03T21:29:17.152Z,50.91
2022-12-03T21:34:20.585Z,50.34
2022-12-03T21:39:24.248Z,50.47
2022-12-03T21:44:27.793Z,50.66
2022-12-03T21:49:31.006Z,50.30
2022-12-03T21:54:34.827Z,50.37
2022-12-03T21:59:38.271Z,50.08
2022-12-03T22:04:42.556Z,50.57
2022-12-03T22:09:46.048Z,50.28
2022-12-03T22:14:49.543Z,50.89
2022-12-03T22:19:53.588Z,50.55
2022-12-03T22:24:57.440Z,50.47
2022-12-03T22:30:01.181Z,50.97
2022-12-03T22:35:05.808Z,50.43
2022-12-03T22:40:10.272Z,50.84
2022-12-03T22:45:13.720Z,50.61
2022-12-03T22:50:17.143Z,51.00
2022-12-03T22:55:20.873Z,50.89
2022-12-03T23:00:32.404Z,50.89
2022-12-03T23:05:37.902Z,50.30
2022-12-03T23:10:44.419Z,50.53
2022-12-03T23:15:50.397Z,50.59
2022-12-03T23:20:56.211Z,50.53
2022-12-03T23:26:02.007Z,50.50
2022-12-03T23:31:06.508Z,50.52
2022-12-03T23:36:10.585Z,51.09
2022-12-03T23:41:19.424Z,50.71
2022-12-03T23:46:25.719Z,50.83
2022-12-03T23:51:29.167Z,50.95
2022-12-03T23:56:32.907Z,50.96
